> <
  • 1
  • 2

Novidades

  • Temos o prazer de lhe apresentar… Ler mais +
  • Está disponível a secção Multimédia no… Ler mais +
  • 1
[source: ADDS]
METAR
LPPR 301030Z 28009KT 250V320 9999 FEW020 14/07 Q1012 =
TAF
TAF LPPR 300500Z 3006/0106 26012KT 9999 SCT030 TEMPO 3006/3014 26015G25KT 8000 SHRA BKN015 FEW025TCU BECMG 3014/3016 30015KT BECMG 3022/3024 VRB03KT =

contactos